Time;durP1;ratioP1;P1;durP2;ratioP2;P2;SDS_P1;SDS_P2;PMS_P1;PMS_P2;Temp;Humidity;BMP_temperature;BMP_pressure;BME280_temperature;BME280_humidity;BME280_pressure;Samples;Min_cycle;Max_cycle;Signal;HPM_P1;HPM_P2
2023/03/24 00:00:51;;;;;;;9.30;3.50;;;;;;;-145.18;100.00;60484.78;5112393;28;20487;-68
2023/03/24 00:03:16;;;;;;;10.13;3.43;;;;;;;-145.18;100.00;60484.78;5112496;28;20028;-67
2023/03/24 00:05:43;;;;;;;9.67;3.63;;;;;;;-145.18;100.00;60484.78;5112333;28;20036;-67
2023/03/24 00:08:09;;;;;;;9.70;3.57;;;;;;;-145.18;100.00;60484.78;5111644;28;20034;-67
2023/03/24 00:10:35;;;;;;;8.60;3.70;;;;;;;-145.18;100.00;60484.78;5111409;28;20027;-68
2023/03/24 00:13:01;;;;;;;11.70;3.70;;;;;;;-145.18;100.00;60484.78;5112172;28;20119;-67
2023/03/24 00:15:28;;;;;;;13.23;4.07;;;;;;;-145.18;100.00;60484.78;5112526;28;20028;-68
2023/03/24 00:17:56;;;;;;;8.13;3.93;;;;;;;-145.18;100.00;60484.78;5105181;28;20026;-68
2023/03/24 00:20:23;;;;;;;14.73;4.27;;;;;;;-145.18;100.00;60484.78;5112139;28;20046;-68
2023/03/24 00:22:57;;;;;;;12.20;3.90;;;;;;;-145.18;100.00;60484.78;5112079;28;20031;-68
2023/03/24 00:25:32;;;;;;;12.33;3.83;;;;;;;-145.18;100.00;60484.78;5109502;28;20376;-68
2023/03/24 00:27:58;;;;;;;12.77;4.53;;;;;;;-145.18;100.00;60484.78;5109615;28;20072;-68
2023/03/24 00:30:24;;;;;;;9.87;3.73;;;;;;;-145.18;100.00;60484.78;5112081;28;20016;-68
2023/03/24 00:32:51;;;;;;;10.90;3.90;;;;;;;-145.18;100.00;60484.78;5112057;28;20028;-68
2023/03/24 00:35:17;;;;;;;16.23;3.87;;;;;;;-145.18;100.00;60484.78;5105363;28;20036;-68
2023/03/24 00:37:43;;;;;;;12.13;4.00;;;;;;;-145.18;100.00;60484.78;5111156;28;20023;-68
2023/03/24 00:40:12;;;;;;;10.77;4.00;;;;;;;-145.18;100.00;60484.78;5112201;28;20034;-68
2023/03/24 00:42:39;;;;;;;12.03;4.17;;;;;;;-145.18;100.00;60484.78;5111865;28;20054;-68
2023/03/24 00:45:08;;;;;;;9.20;4.23;;;;;;;-145.18;100.00;60484.78;5110092;28;20030;-68
2023/03/24 00:47:36;;;;;;;7.30;3.60;;;;;;;-145.18;100.00;60484.78;5112285;28;20433;-68
2023/03/24 00:50:08;;;;;;;10.90;4.10;;;;;;;-145.18;100.00;60484.78;5115773;28;20023;-68
2023/03/24 00:52:34;;;;;;;8.73;4.05;;;;;;;-145.18;100.00;60484.78;5114726;28;20070;-68
2023/03/24 00:55:02;;;;;;;10.77;3.90;;;;;;;-145.18;100.00;60484.78;5115778;28;20066;-69
2023/03/24 00:57:33;;;;;;;10.93;4.80;;;;;;;-145.18;100.00;60484.78;5113805;28;20027;-68
2023/03/24 01:00:06;;;;;;;9.65;4.43;;;;;;;-145.18;100.00;60484.78;5115590;28;20153;-68
2023/03/24 01:02:32;;;;;;;8.73;4.30;;;;;;;-145.18;100.00;60484.78;5113248;28;20023;-68
2023/03/24 01:05:00;;;;;;;10.97;4.10;;;;;;;-145.18;100.00;60484.78;5115727;28;20035;-69
2023/03/24 01:07:28;;;;;;;11.77;3.80;;;;;;;-145.18;100.00;60484.78;5115820;28;20487;-69
2023/03/24 01:09:56;;;;;;;8.50;4.63;;;;;;;-145.18;100.00;60484.78;5114930;28;20110;-69
2023/03/24 01:12:28;;;;;;;12.00;4.53;;;;;;;-145.18;100.00;60484.78;5113041;28;20079;-69
2023/03/24 01:14:55;;;;;;;11.73;4.63;;;;;;;-145.18;100.00;60484.78;5112766;28;20501;-69
2023/03/24 01:17:21;;;;;;;8.73;4.20;;;;;;;-145.18;100.00;60484.78;5112920;28;20364;-69
2023/03/24 01:19:47;;;;;;;11.03;5.13;;;;;;;-145.18;100.00;60484.78;5114338;28;20048;-69
2023/03/24 01:22:13;;;;;;;12.70;5.03;;;;;;;-145.18;100.00;60484.78;5114882;27;20019;-68
2023/03/24 01:24:39;;;;;;;10.40;4.73;;;;;;;-145.18;100.00;60484.78;5114825;28;20099;-68
2023/03/24 01:27:05;;;;;;;8.87;4.13;;;;;;;-145.18;100.00;60484.78;5113641;28;20031;-69
2023/03/24 01:29:31;;;;;;;9.93;4.73;;;;;;;-145.18;100.00;60484.78;5113762;28;20108;-69
2023/03/24 01:31:56;;;;;;;10.87;4.87;;;;;;;-145.18;100.00;60484.78;5113407;28;20057;-69
2023/03/24 01:34:22;;;;;;;8.00;4.80;;;;;;;-145.18;100.00;60484.78;5114555;28;20027;-68
2023/03/24 01:36:47;;;;;;;10.90;4.73;;;;;;;-145.18;100.00;60484.78;5114356;28;20027;-69
2023/03/24 01:39:13;;;;;;;10.97;5.07;;;;;;;-145.18;100.00;60484.78;5115064;28;20475;-68
2023/03/24 01:41:39;;;;;;;8.57;5.00;;;;;;;-145.18;100.00;60484.78;5115157;28;20031;-69
2023/03/24 01:44:28;;;;;;;7.00;4.30;;;;;;;-145.18;100.00;60484.78;5114761;28;20031;-70
2023/03/24 01:46:55;;;;;;;9.10;4.60;;;;;;;-145.18;100.00;60484.78;5114231;28;20027;-70
2023/03/24 01:49:22;;;;;;;11.40;5.20;;;;;;;-145.18;100.00;60484.78;5113328;28;20099;-68
2023/03/24 01:51:54;;;;;;;8.00;5.07;;;;;;;-145.18;100.00;60484.78;5113833;27;20054;-69
2023/03/24 01:54:24;;;;;;;9.35;4.90;;;;;;;-145.18;100.00;60484.78;5113249;28;20126;-69
2023/03/24 01:56:57;;;;;;;10.73;5.60;;;;;;;-145.18;100.00;60484.78;5114012;28;20024;-69
2023/03/24 01:59:27;;;;;;;9.57;5.33;;;;;;;-145.18;100.00;60484.78;5113955;28;20476;-69
2023/03/24 02:02:02;;;;;;;8.50;5.20;;;;;;;-145.18;100.00;60484.78;5107729;28;20480;-69
2023/03/24 02:04:33;;;;;;;8.77;5.10;;;;;;;-145.18;100.00;60484.78;5108316;28;20023;-69
2023/03/24 02:07:05;;;;;;;11.07;5.68;;;;;;;-145.18;100.00;60484.78;5112601;28;20395;-69
2023/03/24 02:09:31;;;;;;;8.70;5.37;;;;;;;-145.18;100.00;60484.78;5110417;28;20027;-69
2023/03/24 02:11:57;;;;;;;8.60;5.47;;;;;;;-145.18;100.00;60484.78;5113248;28;20479;-69
2023/03/24 02:14:22;;;;;;;11.90;5.47;;;;;;;-145.18;100.00;60484.78;5112029;28;20130;-69
2023/03/24 02:17:47;;;;;;;8.30;4.67;;;;;;;-145.18;100.00;60484.78;5114312;27;20027;-69
2023/03/24 02:20:47;;;;;;;8.43;5.33;;;;;;;-145.18;100.00;60484.78;4946653;29;20191;-69
2023/03/24 02:23:54;;;;;;;9.83;5.17;;;;;;;-145.18;100.00;60484.78;4893652;29;20045;-69
2023/03/24 02:27:03;;;;;;;8.70;5.57;;;;;;;-145.18;100.00;60484.78;4884141;29;20044;-69
2023/03/24 02:30:03;;;;;;;8.27;4.80;;;;;;;-145.18;100.00;60484.78;4846301;29;20042;-70
2023/03/24 02:33:03;;;;;;;14.07;7.17;;;;;;;-145.18;100.00;60484.78;4815762;29;20410;-70
2023/03/24 02:36:08;;;;;;;7.97;4.40;;;;;;;-145.18;100.00;60484.78;4807270;29;20054;-70
2023/03/24 02:39:16;;;;;;;11.17;5.80;;;;;;;-145.18;100.00;60484.78;4752639;30;20064;-69
2023/03/24 02:42:24;;;;;;;11.53;6.53;;;;;;;-145.18;100.00;60484.78;4696828;30;20114;-69
2023/03/24 02:45:20;;;;;;;13.63;6.77;;;;;;;-145.18;100.00;60484.78;4705814;30;20053;-69
2023/03/24 02:48:13;;;;;;;10.87;6.63;;;;;;;-145.18;100.00;60484.78;4714413;30;20681;-70
2023/03/24 02:51:08;;;;;;;12.50;6.20;;;;;;;-145.18;100.00;60484.78;4664090;30;20080;-69
2023/03/24 02:53:54;;;;;;;10.67;6.53;;;;;;;-145.18;100.00;60484.78;4667337;30;20046;-69
2023/03/24 02:56:57;;;;;;;10.87;6.90;;;;;;;-145.18;100.00;60484.78;4713849;30;20160;-69
2023/03/24 02:59:43;;;;;;;12.50;6.30;;;;;;;-145.18;100.00;60484.78;4796230;29;20062;-69
2023/03/24 03:02:17;;;;;;;9.07;5.93;;;;;;;-145.18;100.00;60484.78;4839285;29;20049;-69
2023/03/24 03:04:51;;;;;;;11.33;6.40;;;;;;;-145.18;100.00;60484.78;4839643;29;20058;-69
2023/03/24 03:07:24;;;;;;;7.50;5.53;;;;;;;-145.18;100.00;60484.78;4850362;29;20045;-69
2023/03/24 03:10:01;;;;;;;9.63;5.93;;;;;;;-145.18;100.00;60484.78;4875503;29;20051;-70
2023/03/24 03:12:31;;;;;;;9.97;5.57;;;;;;;-145.18;100.00;60484.78;4875616;29;20097;-69
2023/03/24 03:15:05;;;;;;;8.07;5.63;;;;;;;-145.18;100.00;60484.78;4891261;29;20055;-68
2023/03/24 03:17:37;;;;;;;7.30;5.17;;;;;;;-145.18;100.00;60484.78;4992552;28;20049;-68
2023/03/24 03:20:23;;;;;;;;;;;;;;;-145.18;100.00;60484.78;5011191;28;20052;-70
2023/03/24 03:23:01;;;;;;;9.30;5.40;;;;;;;-145.18;100.00;60484.78;5010158;28;20371;-68
2023/03/24 03:25:32;;;;;;;7.63;5.00;;;;;;;-145.18;100.00;60484.78;5032087;28;20444;-62
2023/03/24 03:28:02;;;;;;;7.20;5.10;;;;;;;-145.18;100.00;60484.78;5110842;28;20422;-62
2023/03/24 03:30:33;;;;;;;8.30;5.30;;;;;;;-145.18;100.00;60484.78;5112395;28;20080;-62
2023/03/24 03:33:05;;;;;;;8.00;4.90;;;;;;;-145.18;100.00;60484.78;5112509;28;20047;-62
2023/03/24 03:36:05;;;;;;;8.13;5.10;;;;;;;-145.18;100.00;60484.78;5111660;28;20028;-62
2023/03/24 03:38:44;;;;;;;7.57;5.33;;;;;;;-145.18;100.00;60484.78;5111991;28;20038;-64
2023/03/24 03:41:10;;;;;;;7.27;4.47;;;;;;;-145.18;100.00;60484.78;5110001;28;20030;-62
2023/03/24 03:43:36;;;;;;;6.63;5.00;;;;;;;-145.18;100.00;60484.78;5110282;28;20076;-63
2023/03/24 03:46:05;;;;;;;7.50;5.23;;;;;;;-145.18;100.00;60484.78;5110360;28;20028;-63
2023/03/24 03:48:31;;;;;;;6.80;4.83;;;;;;;-145.18;100.00;60484.78;5111977;28;20032;-63
2023/03/24 03:50:57;;;;;;;7.73;4.90;;;;;;;-145.18;100.00;60484.78;5111563;28;20100;-63
2023/03/24 03:53:29;;;;;;;9.00;6.00;;;;;;;-145.18;100.00;60484.78;5112254;28;20035;-63
2023/03/24 03:55:55;;;;;;;8.67;5.30;;;;;;;-145.18;100.00;60484.78;5112206;28;20110;-64
2023/03/24 03:58:22;;;;;;;7.57;5.37;;;;;;;-145.18;100.00;60484.78;5111866;28;20456;-62
2023/03/24 04:00:47;;;;;;;7.83;5.27;;;;;;;-145.18;100.00;60484.78;5109616;28;20092;-65
2023/03/24 04:03:44;;;;;;;8.17;5.63;;;;;;;-145.18;100.00;60484.78;5105867;28;20028;-64
2023/03/24 04:06:59;;;;;;;9.07;5.87;;;;;;;-145.18;100.00;60484.78;5100412;28;20047;-64
2023/03/24 04:09:40;;;;;;;11.20;6.13;;;;;;;-145.18;100.00;60484.78;5080118;28;20403;-64
2023/03/24 04:12:58;;;;;;;11.23;5.78;;;;;;;-145.18;100.00;60484.78;5109156;28;20032;-64
2023/03/24 04:16:08;;;;;;;7.23;4.60;;;;;;;-145.18;100.00;60484.78;5023125;28;20030;-64
2023/03/24 04:19:04;;;;;;;8.57;5.50;;;;;;;-145.18;100.00;60484.78;5010102;28;20572;-64
2023/03/24 04:21:57;;;;;;;8.17;5.30;;;;;;;-145.18;100.00;60484.78;5011829;28;20040;-63
2023/03/24 04:24:54;;;;;;;10.87;5.40;;;;;;;-145.18;100.00;60484.78;5007315;28;20482;-64
2023/03/24 04:27:46;;;;;;;8.17;4.83;;;;;;;-145.18;100.00;60484.78;5025394;28;20026;-64
2023/03/24 04:30:22;;;;;;;;;;;;;;;-145.18;100.00;60484.78;5025592;28;20385;-63
2023/03/24 04:33:04;;;;;;;8.43;5.33;;;;;;;-145.18;100.00;60484.78;5013909;28;19917;-64
2023/03/24 04:35:35;;;;;;;8.67;5.83;;;;;;;-145.18;100.00;60484.78;5016598;28;20030;-65
2023/03/24 04:38:08;;;;;;;9.10;6.13;;;;;;;-145.18;100.00;60484.78;5014803;28;20046;-63
2023/03/24 04:40:40;;;;;;;7.50;5.27;;;;;;;-145.18;100.00;60484.78;5017459;28;20273;-64
2023/03/24 04:43:08;;;;;;;7.53;4.93;;;;;;;-145.18;100.00;60484.78;5025476;28;20428;-63
2023/03/24 04:45:35;;;;;;;7.30;4.90;;;;;;;-145.18;100.00;60484.78;5028331;28;20037;-63
2023/03/24 04:48:04;;;;;;;11.03;6.50;;;;;;;-145.18;100.00;60484.78;5017978;28;20030;-63
2023/03/24 04:50:37;;;;;;;9.23;6.37;;;;;;;-145.18;100.00;60484.78;5047401;28;20045;-63
2023/03/24 04:53:03;;;;;;;8.87;5.30;;;;;;;-145.18;100.00;60484.78;5115737;28;20027;-63
2023/03/24 04:56:02;;;;;;;8.77;5.60;;;;;;;-145.18;100.00;60484.78;5104810;28;20073;-63
2023/03/24 04:58:28;;;;;;;10.63;6.00;;;;;;;-145.18;100.00;60484.78;5110259;28;20113;-64
2023/03/24 05:00:55;;;;;;;9.60;5.80;;;;;;;-145.18;100.00;60484.78;5114339;28;20024;-63
2023/03/24 05:03:20;;;;;;;8.33;6.53;;;;;;;-145.18;100.00;60484.78;5114962;28;20020;-64
2023/03/24 05:05:48;;;;;;;11.60;6.47;;;;;;;-145.18;100.00;60484.78;5115397;28;20080;-63
2023/03/24 05:08:15;;;;;;;9.33;5.97;;;;;;;-145.18;100.00;60484.78;5115234;28;20058;-63
2023/03/24 05:10:41;;;;;;;9.67;6.27;;;;;;;-145.18;100.00;60484.78;5114695;28;20023;-63
2023/03/24 05:13:07;;;;;;;9.37;6.17;;;;;;;-145.18;100.00;60484.78;5112464;28;20372;-63
2023/03/24 05:15:33;;;;;;;9.43;6.77;;;;;;;-145.18;100.00;60484.78;5114680;28;20502;-62
2023/03/24 05:17:59;;;;;;;9.17;6.63;;;;;;;-145.18;100.00;60484.78;5111779;27;20026;-62
2023/03/24 05:20:25;;;;;;;10.97;7.17;;;;;;;-145.18;100.00;60484.78;5113559;28;20024;-63
2023/03/24 05:22:51;;;;;;;8.77;5.87;;;;;;;-145.18;100.00;60484.78;5115068;27;20081;-62
2023/03/24 05:25:18;;;;;;;8.83;6.33;;;;;;;-145.18;100.00;60484.78;5114082;28;20032;-63
2023/03/24 05:27:44;;;;;;;8.33;6.47;;;;;;;-145.18;100.00;60484.78;5113091;28;20107;-63
2023/03/24 05:30:10;;;;;;;10.30;7.33;;;;;;;-145.18;100.00;60484.78;5113871;27;20448;-63
2023/03/24 05:32:35;;;;;;;9.13;5.73;;;;;;;-145.18;100.00;60484.78;5114036;28;20488;-63
2023/03/24 05:35:01;;;;;;;7.80;5.27;;;;;;;-145.18;100.00;60484.78;5113601;28;20027;-63
2023/03/24 05:37:27;;;;;;;9.60;6.10;;;;;;;-145.18;100.00;60484.78;5113813;28;20024;-63
2023/03/24 05:39:53;;;;;;;8.27;5.43;;;;;;;-145.18;100.00;60484.78;5114257;28;20372;-63
2023/03/24 05:42:19;;;;;;;6.70;4.10;;;;;;;-145.18;100.00;60484.78;5114758;28;20064;-62
2023/03/24 05:44:45;;;;;;;10.03;4.27;;;;;;;-145.18;100.00;60484.78;5113910;28;20030;-62
2023/03/24 05:47:14;;;;;;;5.07;2.93;;;;;;;-145.18;100.00;60484.78;5109205;28;20032;-63
2023/03/24 05:49:43;;;;;;;8.33;3.87;;;;;;;-145.18;100.00;60484.78;5109992;28;20397;-64
2023/03/24 05:52:09;;;;;;;6.47;3.90;;;;;;;-145.18;100.00;60484.78;5114196;27;20058;-62
2023/03/24 05:54:35;;;;;;;7.27;2.90;;;;;;;-145.18;100.00;60484.78;5114031;28;20518;-63
2023/03/24 05:57:01;;;;;;;4.00;2.50;;;;;;;-145.18;100.00;60484.78;5113221;28;20032;-65
2023/03/24 05:59:28;;;;;;;4.20;2.60;;;;;;;-145.18;100.00;60484.78;5113677;28;20096;-62
2023/03/24 06:01:55;;;;;;;2.97;1.43;;;;;;;-145.18;100.00;60484.78;5112247;28;20366;-64
2023/03/24 06:04:21;;;;;;;5.43;2.17;;;;;;;-145.18;100.00;60484.78;5108801;28;20020;-61
2023/03/24 06:06:47;;;;;;;3.23;1.40;;;;;;;-145.18;100.00;60484.78;5112065;28;20462;-64
2023/03/24 06:09:15;;;;;;;3.77;1.53;;;;;;;-145.18;100.00;60484.78;5110581;28;20110;-66
2023/03/24 06:11:44;;;;;;;2.87;1.17;;;;;;;-145.18;100.00;60484.78;5105212;28;20019;-64
2023/03/24 06:14:09;;;;;;;3.70;1.23;;;;;;;-145.18;100.00;60484.78;5113409;28;20073;-61
2023/03/24 06:16:38;;;;;;;4.53;1.60;;;;;;;-145.18;100.00;60484.78;5113904;28;20475;-63
2023/03/24 06:19:05;;;;;;;3.13;1.07;;;;;;;-145.18;100.00;60484.78;5109683;28;20466;-63
2023/03/24 06:21:31;;;;;;;2.80;0.80;;;;;;;-145.18;100.00;60484.78;5108606;28;20024;-64
2023/03/24 06:23:58;;;;;;;5.03;1.60;;;;;;;-145.18;100.00;60484.78;5112904;28;20550;-60
2023/03/24 06:26:24;;;;;;;4.63;1.20;;;;;;;-145.18;100.00;60484.78;5113359;28;20418;-60
2023/03/24 06:28:52;;;;;;;5.27;1.53;;;;;;;-145.18;100.00;60484.78;5113520;28;20035;-61
2023/03/24 06:31:20;;;;;;;3.53;1.40;;;;;;;-145.18;100.00;60484.78;5110566;28;20111;-62
2023/03/24 06:33:49;;;;;;;2.63;0.90;;;;;;;-145.18;100.00;60484.78;5113351;28;20054;-62
2023/03/24 06:36:15;;;;;;;6.33;1.20;;;;;;;-145.18;100.00;60484.78;5113202;28;20372;-61
2023/03/24 06:38:41;;;;;;;8.00;1.53;;;;;;;-145.18;100.00;60484.78;5108921;28;20028;-61
2023/03/24 06:41:07;;;;;;;7.03;1.50;;;;;;;-145.18;100.00;60484.78;5111607;28;20036;-61
2023/03/24 06:43:33;;;;;;;8.43;2.27;;;;;;;-145.18;100.00;60484.78;5113303;28;20047;-63
2023/03/24 06:45:59;;;;;;;8.70;1.60;;;;;;;-145.18;100.00;60484.78;5112471;28;20501;-61
2023/03/24 06:48:25;;;;;;;5.57;1.40;;;;;;;-145.18;100.00;60484.78;5112798;28;20023;-58
2023/03/24 06:50:52;;;;;;;5.23;1.33;;;;;;;-145.18;100.00;60484.78;5112792;28;20446;-58
2023/03/24 06:53:20;;;;;;;3.00;1.33;;;;;;;-145.18;100.00;60484.78;5112657;28;20110;-59
2023/03/24 06:55:46;;;;;;;7.27;1.43;;;;;;;-145.18;100.00;60484.78;5108156;28;20020;-58
2023/03/24 06:58:13;;;;;;;5.60;1.50;;;;;;;-145.18;100.00;60484.78;5112674;28;20035;-58
2023/03/24 07:00:40;;;;;;;4.57;1.40;;;;;;;-145.18;100.00;60484.78;5111134;28;20499;-58
2023/03/24 07:03:06;;;;;;;6.63;2.08;;;;;;;-145.18;100.00;60484.78;5112681;27;20047;-59
2023/03/24 07:05:32;;;;;;;3.20;1.05;;;;;;;-145.18;100.00;60484.78;5112867;28;20035;-61
2023/03/24 07:07:58;;;;;;;4.22;1.25;;;;;;;-145.18;100.00;60484.78;5113177;28;20391;-61
2023/03/24 07:10:23;;;;;;;6.33;1.50;;;;;;;-145.18;100.00;60484.78;5111621;28;20034;-60
2023/03/24 07:12:49;;;;;;;5.43;1.30;;;;;;;-145.18;100.00;60484.78;5109437;28;20523;-60
2023/03/24 07:15:15;;;;;;;4.63;1.40;;;;;;;-145.18;100.00;60484.78;5111815;28;20110;-58
2023/03/24 07:17:41;;;;;;;8.98;1.45;;;;;;;-145.18;100.00;60484.78;5111908;28;20027;-60
2023/03/24 07:20:07;;;;;;;5.78;1.52;;;;;;;-145.18;100.00;60484.78;5112681;28;20506;-60
2023/03/24 07:22:36;;;;;;;4.75;1.25;;;;;;;-145.18;100.00;60484.78;5112904;28;20140;-60
2023/03/24 07:25:04;;;;;;;6.70;1.60;;;;;;;-145.18;100.00;60484.78;5112984;28;20031;-60
2023/03/24 07:27:33;;;;;;;6.83;1.50;;;;;;;-145.18;100.00;60484.78;5109939;28;20027;-62
2023/03/24 07:29:59;;;;;;;9.27;2.20;;;;;;;-145.18;100.00;60484.78;5113099;28;20425;-60
2023/03/24 07:32:27;;;;;;;5.47;1.70;;;;;;;-145.18;100.00;60484.78;5108559;28;20034;-60
2023/03/24 07:34:53;;;;;;;6.50;2.00;;;;;;;-145.18;100.00;60484.78;5112881;28;20031;-60
2023/03/24 07:37:18;;;;;;;6.47;1.80;;;;;;;-145.18;100.00;60484.78;5113467;28;20027;-61
2023/03/24 07:39:44;;;;;;;7.53;1.70;;;;;;;-145.18;100.00;60484.78;5112850;28;20391;-60
2023/03/24 07:42:09;;;;;;;3.63;1.43;;;;;;;-145.18;100.00;60484.78;5113234;28;20030;-62
2023/03/24 07:44:35;;;;;;;7.47;2.00;;;;;;;-145.18;100.00;60484.78;5110158;28;20365;-60
2023/03/24 07:47:00;;;;;;;5.80;1.80;;;;;;;-145.18;100.00;60484.78;5112959;28;20023;-62
2023/03/24 07:49:26;;;;;;;7.63;1.90;;;;;;;-145.18;100.00;60484.78;5108483;28;20039;-61
2023/03/24 07:51:51;;;;;;;5.10;1.70;;;;;;;-145.18;100.00;60484.78;5112913;28;20062;-61
2023/03/24 07:54:17;;;;;;;11.20;1.70;;;;;;;-145.18;100.00;60484.78;5112259;28;20555;-61
2023/03/24 07:56:43;;;;;;;7.43;2.00;;;;;;;-145.18;100.00;60484.78;5113867;28;20102;-60
2023/03/24 07:59:08;;;;;;;9.37;1.80;;;;;;;-145.18;100.00;60484.78;5119094;27;20024;-61
2023/03/24 08:01:35;;;;;;;5.83;1.60;;;;;;;-145.18;100.00;60484.78;5113810;27;20468;-61
2023/03/24 08:04:01;;;;;;;8.63;1.60;;;;;;;-145.18;100.00;60484.78;5119321;27;20027;-60
2023/03/24 08:06:28;;;;;;;9.87;1.93;;;;;;;-145.18;100.00;60484.78;5118928;27;20379;-60
2023/03/24 08:08:54;;;;;;;5.63;1.50;;;;;;;-145.18;100.00;60484.78;5119576;27;20031;-60
2023/03/24 08:11:20;;;;;;;8.63;1.70;;;;;;;-145.18;100.00;60484.78;5119863;27;20475;-60
2023/03/24 08:13:45;;;;;;;7.07;2.10;;;;;;;-145.18;100.00;60484.78;5119233;28;20076;-62
2023/03/24 08:16:11;;;;;;;4.40;1.40;;;;;;;-145.18;100.00;60484.78;5119553;27;20027;-60
2023/03/24 08:18:37;;;;;;;4.67;1.80;;;;;;;-145.18;100.00;60484.78;5117146;27;20091;-59
2023/03/24 08:21:03;;;;;;;7.30;1.70;;;;;;;-145.18;100.00;60484.78;5115492;28;20027;-59
2023/03/24 08:23:28;;;;;;;5.93;1.97;;;;;;;-145.18;100.00;60484.78;5118485;28;20031;-59
2023/03/24 08:25:54;;;;;;;5.47;1.93;;;;;;;-145.18;100.00;60484.78;5119107;28;20031;-60
2023/03/24 08:28:20;;;;;;;6.17;1.30;;;;;;;-145.18;100.00;60484.78;5119217;27;20016;-61
2023/03/24 08:30:46;;;;;;;5.93;1.63;;;;;;;-145.18;100.00;60484.78;5115832;27;20166;-59
2023/03/24 08:33:13;;;;;;;6.93;1.73;;;;;;;-145.18;100.00;60484.78;5118869;28;20035;-61
2023/03/24 08:35:39;;;;;;;8.38;1.27;;;;;;;-145.18;100.00;60484.78;5118399;27;20460;-59
2023/03/24 08:38:07;;;;;;;11.63;1.80;;;;;;;-145.18;100.00;60484.78;5115706;27;20027;-60
2023/03/24 08:40:33;;;;;;;10.35;1.75;;;;;;;-145.18;100.00;60484.78;5116955;27;20019;-61
2023/03/24 08:43:02;;;;;;;10.73;2.50;;;;;;;-145.18;100.00;60484.78;5119145;27;20027;-60
2023/03/24 08:45:30;;;;;;;8.27;1.88;;;;;;;-145.18;100.00;60484.78;5118860;27;20106;-61
2023/03/24 08:47:58;;;;;;;6.65;1.35;;;;;;;-145.18;100.00;60484.78;5118931;27;20020;-61
2023/03/24 08:50:27;;;;;;;6.88;1.45;;;;;;;-145.18;100.00;60484.78;5119002;27;20104;-61
2023/03/24 08:52:53;;;;;;;8.37;1.50;;;;;;;-145.18;100.00;60484.78;5118024;27;20420;-61
2023/03/24 08:55:20;;;;;;;5.47;1.20;;;;;;;-145.18;100.00;60484.78;5112824;27;20051;-61
2023/03/24 08:57:46;;;;;;;10.43;1.90;;;;;;;-145.18;100.00;60484.78;5118255;27;20020;-60
2023/03/24 09:00:14;;;;;;;10.87;2.27;;;;;;;-145.18;100.00;60484.78;5118180;27;20051;-62
2023/03/24 09:02:51;;;;;;;5.87;1.40;;;;;;;-145.18;100.00;60484.78;5117372;28;20091;-61
2023/03/24 09:05:20;;;;;;;10.10;1.60;;;;;;;-145.18;100.00;60484.78;5119049;27;20034;-61
2023/03/24 09:07:47;;;;;;;10.90;1.90;;;;;;;-145.18;100.00;60484.78;5118777;27;20088;-59
2023/03/24 09:10:13;;;;;;;5.93;1.23;;;;;;;-145.18;100.00;60484.78;5107110;28;20545;-61
2023/03/24 09:12:39;;;;;;;9.50;1.83;;;;;;;-145.18;100.00;60484.78;5115512;28;20024;-60
2023/03/24 09:15:07;;;;;;;12.05;1.60;;;;;;;-145.18;100.00;60484.78;5114895;28;20038;-59
2023/03/24 09:17:33;;;;;;;10.52;2.00;;;;;;;-145.18;100.00;60484.78;5115443;28;20068;-59
2023/03/24 09:19:58;;;;;;;7.18;1.58;;;;;;;-145.18;100.00;60484.78;5115439;28;20024;-59
2023/03/24 09:22:24;;;;;;;12.43;1.70;;;;;;;-145.18;100.00;60484.78;5115486;27;20054;-59
2023/03/24 09:24:49;;;;;;;7.57;1.88;;;;;;;-145.18;100.00;60484.78;5115177;28;20039;-60
2023/03/24 09:27:16;;;;;;;11.57;2.17;;;;;;;-145.18;100.00;60484.78;5110952;28;20024;-59
2023/03/24 09:29:41;;;;;;;7.57;1.70;;;;;;;-145.18;100.00;60484.78;5114994;28;20058;-60
2023/03/24 09:32:07;;;;;;;8.68;1.95;;;;;;;-145.18;100.00;60484.78;5113121;28;20051;-60
2023/03/24 09:34:32;;;;;;;12.48;1.83;;;;;;;-145.18;100.00;60484.78;5113659;28;20074;-60
2023/03/24 09:36:59;;;;;;;11.63;1.90;;;;;;;-145.18;100.00;60484.78;5115415;28;20107;-60
2023/03/24 09:39:25;;;;;;;10.38;2.05;;;;;;;-145.18;100.00;60484.78;5115058;28;20058;-61
2023/03/24 09:41:51;;;;;;;6.68;1.52;;;;;;;-145.18;100.00;60484.78;5115153;28;20469;-62
2023/03/24 09:44:30;;;;;;;11.25;2.28;;;;;;;-145.18;100.00;60484.78;5112746;28;20043;-60
2023/03/24 09:47:27;;;;;;;8.13;1.52;;;;;;;-145.18;100.00;60484.78;5114948;28;20031;-62
2023/03/24 09:49:54;;;;;;;8.85;1.83;;;;;;;-145.18;100.00;60484.78;5115043;28;20038;-62
2023/03/24 09:52:26;;;;;;;10.35;2.00;;;;;;;-145.18;100.00;60484.78;5114842;28;20020;-62
2023/03/24 09:55:09;;;;;;;9.57;2.35;;;;;;;-145.18;100.00;60484.78;5114860;28;20115;-61
2023/03/24 09:57:41;;;;;;;8.45;2.15;;;;;;;-145.18;100.00;60484.78;5114739;28;20062;-63
2023/03/24 10:00:36;;;;;;;7.93;2.10;;;;;;;-145.18;100.00;60484.78;5114653;28;20077;-61
2023/03/24 10:03:34;;;;;;;9.18;2.47;;;;;;;-145.18;100.00;60484.78;5096211;28;20080;-62
2023/03/24 10:06:10;;;;;;;11.37;2.40;;;;;;;-145.18;100.00;60484.78;5068478;28;20071;-62
2023/03/24 10:08:40;;;;;;;9.67;2.20;;;;;;;-145.18;100.00;60484.78;5114991;28;20317;-60
2023/03/24 10:11:34;;;;;;;8.90;1.60;;;;;;;-145.18;100.00;60484.78;5111048;28;20019;-63
2023/03/24 10:14:43;;;;;;;13.18;2.20;;;;;;;-145.18;100.00;60484.78;5114383;28;20028;-62
2023/03/24 10:17:48;;;;;;;5.55;1.60;;;;;;;-145.18;100.00;60484.78;5114694;28;20027;-62
2023/03/24 10:20:52;;;;;;;8.05;1.40;;;;;;;-145.18;100.00;60484.78;5080022;28;20479;-62
2023/03/24 10:23:44;;;;;;;9.32;2.40;;;;;;;-145.18;100.00;60484.78;5082960;28;20063;-61
2023/03/24 10:26:55;;;;;;;4.95;1.63;;;;;;;-145.18;100.00;60484.78;5114344;28;20043;-63
2023/03/24 10:29:27;;;;;;;8.43;2.10;;;;;;;-145.18;100.00;60484.78;5088101;28;20031;-61
2023/03/24 10:32:11;;;;;;;8.27;2.00;;;;;;;-145.18;100.00;60484.78;5114334;28;20550;-63
2023/03/24 10:34:41;;;;;;;7.10;1.83;;;;;;;-145.18;100.00;60484.78;5112794;28;20080;-62
2023/03/24 10:37:10;;;;;;;10.07;2.30;;;;;;;-145.18;100.00;60484.78;5112668;28;20572;-61
2023/03/24 10:39:36;;;;;;;9.68;1.70;;;;;;;-145.18;100.00;60484.78;5106447;28;20050;-63
2023/03/24 10:42:03;;;;;;;7.38;1.60;;;;;;;-145.18;100.00;60484.78;5114414;28;20042;-61
2023/03/24 10:44:29;;;;;;;8.40;1.77;;;;;;;-145.18;100.00;60484.78;5113780;28;20027;-62
2023/03/24 10:46:58;;;;;;;10.63;1.55;;;;;;;-145.18;100.00;60484.78;5113472;28;20020;-63
2023/03/24 10:49:24;;;;;;;13.13;2.20;;;;;;;-145.18;100.00;60484.78;5113969;27;20065;-60
2023/03/24 10:51:55;;;;;;;12.30;2.45;;;;;;;-145.18;100.00;60484.78;5112505;28;20020;-61
2023/03/24 10:54:23;;;;;;;8.32;2.38;;;;;;;-145.18;100.00;60484.78;5112069;28;20088;-61
2023/03/24 10:57:14;;;;;;;8.32;1.55;;;;;;;-145.18;100.00;60484.78;5098720;28;20024;-62
2023/03/24 10:59:53;;;;;;;11.10;2.30;;;;;;;-145.18;100.00;60484.78;5113823;28;20111;-62
2023/03/24 11:02:30;;;;;;;5.50;1.20;;;;;;;-145.18;100.00;60484.78;5096689;28;20333;-63
2023/03/24 11:05:28;;;;;;;10.07;2.10;;;;;;;-145.18;100.00;60484.78;5093549;28;20035;-62
2023/03/24 11:07:58;;;;;;;10.10;1.80;;;;;;;-145.18;100.00;60484.78;5093989;28;20496;-63
2023/03/24 11:10:26;;;;;;;7.07;1.50;;;;;;;-145.18;100.00;60484.78;5093794;28;20032;-62
2023/03/24 11:13:35;;;;;;;6.38;1.58;;;;;;;-145.18;100.00;60484.78;5106328;28;20027;-62
2023/03/24 11:16:11;;;;;;;7.68;1.70;;;;;;;-145.18;100.00;60484.78;5111099;28;20050;-62
2023/03/24 11:18:37;;;;;;;11.40;1.77;;;;;;;-145.18;100.00;60484.78;5113940;28;20030;-62
2023/03/24 11:21:05;;;;;;;4.07;1.48;;;;;;;-145.18;100.00;60484.78;5114165;28;20110;-62
2023/03/24 11:23:39;;;;;;;9.18;1.98;;;;;;;-145.18;100.00;60484.78;5113889;27;20543;-63
2023/03/24 11:26:21;;;;;;;9.23;1.35;;;;;;;-145.18;100.00;60484.78;5113924;28;20027;-62
2023/03/24 11:28:54;;;;;;;6.35;1.80;;;;;;;-145.18;100.00;60484.78;5107649;28;20027;-63
2023/03/24 11:31:29;;;;;;;5.85;1.55;;;;;;;-145.18;100.00;60484.78;5093224;28;20058;-62